Time;durP1;ratioP1;P1;durP2;ratioP2;P2;SDS_P1;SDS_P2;PMS_P1;PMS_P2;Temp;Humidity;BMP_temperature;BMP_pressure;BME280_temperature;BME280_humidity;BME280_pressure;Samples;Min_cycle;Max_cycle;Signal;HPM_P1;HPM_P2
2022/06/13 00:01:12;;;;;;;0.10;0.10;;;20.50;90.60;;;;;;5024954;28;20028;-87
2022/06/13 00:03:39;;;;;;;0.45;0.45;;;20.50;90.50;;;;;;5031085;28;20037;-87
2022/06/13 00:06:05;;;;;;;0.13;0.13;;;20.60;90.00;;;;;;5020071;28;20190;-87
2022/06/13 00:08:31;;;;;;;0.00;0.00;;;20.60;89.80;;;;;;5034773;28;20762;-87
2022/06/13 00:10:57;;;;;;;0.43;0.43;;;20.60;88.60;;;;;;5026972;28;20129;-88
2022/06/13 00:13:23;;;;;;;0.17;0.10;;;20.70;86.50;;;;;;5024905;28;20061;-87
2022/06/13 00:15:49;;;;;;;0.00;0.00;;;20.80;85.70;;;;;;5023955;28;20112;-87
2022/06/13 00:18:15;;;;;;;0.10;0.10;;;20.70;86.40;;;;;;5024234;28;20048;-88
2022/06/13 00:20:40;;;;;;;0.90;0.30;;;20.70;87.30;;;;;;5025316;28;20106;-87
2022/06/13 00:23:06;;;;;;;0.33;0.33;;;20.60;87.60;;;;;;5005005;28;20052;-86
2022/06/13 00:25:32;;;;;;;0.13;0.13;;;20.50;88.70;;;;;;5023105;28;20033;-83
2022/06/13 00:27:57;;;;;;;0.57;0.30;;;20.40;89.80;;;;;;5025748;28;20064;-84
2022/06/13 00:30:23;;;;;;;0.10;0.10;;;20.30;90.00;;;;;;5007593;28;20039;-84
2022/06/13 00:32:50;;;;;;;0.10;0.10;;;20.30;90.00;;;;;;5021966;28;20040;-85
2022/06/13 00:35:16;;;;;;;2.00;1.02;;;20.30;90.00;;;;;;5025168;28;20507;-85
2022/06/13 00:37:42;;;;;;;0.10;0.10;;;20.40;89.70;;;;;;5033878;28;20040;-85
2022/06/13 00:40:08;;;;;;;0.23;0.23;;;20.40;89.40;;;;;;5010210;28;20036;-85
2022/06/13 00:42:34;;;;;;;0.20;0.20;;;20.40;89.30;;;;;;5023020;28;20535;-84
2022/06/13 00:45:06;;;;;;;0.30;0.30;;;20.50;89.30;;;;;;5023571;28;20496;-84
2022/06/13 00:47:32;;;;;;;0.10;0.10;;;20.50;89.10;;;;;;5023134;28;20037;-83
2022/06/13 00:49:59;;;;;;;0.63;0.10;;;20.40;89.00;;;;;;5026235;28;20102;-84
2022/06/13 00:52:42;;;;;;;0.08;0.08;;;20.40;88.90;;;;;;5024678;28;20611;-84
2022/06/13 00:55:14;;;;;;;0.45;0.45;;;20.40;88.90;;;;;;5025080;28;20083;-83
2022/06/13 00:57:40;;;;;;;0.08;0.08;;;20.40;88.70;;;;;;5036707;28;20044;-84
2022/06/13 01:00:11;;;;;;;0.20;0.20;;;20.30;89.30;;;;;;5025243;28;20029;-83
2022/06/13 01:02:41;;;;;;;0.45;0.45;;;20.30;89.10;;;;;;5029052;28;20171;-86
2022/06/13 01:05:08;;;;;;;0.13;0.08;;;20.30;89.20;;;;;;5029683;28;20056;-87
2022/06/13 01:07:36;;;;;;;0.45;0.25;;;20.30;89.10;;;;;;5031433;28;20044;-87
2022/06/13 01:12:48;;;;;;;0.10;0.10;;;20.30;88.60;;;;;;5023009;28;20091;-84
2022/06/13 01:15:23;;;;;;;0.20;0.20;;;20.40;88.30;;;;;;5025524;28;20036;-86
2022/06/13 01:18:19;;;;;;;2.30;0.80;;;20.40;87.90;;;;;;5032368;28;20527;-86
2022/06/13 01:20:50;;;;;;;0.45;0.45;;;20.40;87.80;;;;;;5024265;28;20040;-85
2022/06/13 01:23:31;;;;;;;0.28;0.28;;;20.40;87.50;;;;;;5023289;28;20029;-86
2022/06/13 01:25:57;;;;;;;0.10;0.10;;;20.40;87.30;;;;;;5023454;28;20091;-86
2022/06/13 01:28:31;;;;;;;0.10;0.10;;;20.40;87.30;;;;;;5028245;28;20045;-85
2022/06/13 01:31:14;;;;;;;0.77;0.47;;;20.40;87.50;;;;;;5000213;28;20102;-85
2022/06/13 01:34:38;;;;;;;0.43;0.35;;;20.30;87.40;;;;;;5023161;28;20025;-87
2022/06/13 01:37:18;;;;;;;0.00;0.00;;;20.30;87.40;;;;;;4931873;28;20039;-85
2022/06/13 01:40:04;;;;;;;0.10;0.10;;;20.30;87.40;;;;;;4929005;28;20130;-85
2022/06/13 01:42:42;;;;;;;0.10;0.10;;;20.30;87.10;;;;;;4925913;28;20035;-85
2022/06/13 01:45:28;;;;;;;0.10;0.10;;;20.30;87.80;;;;;;4926551;28;20479;-86
2022/06/13 01:48:26;;;;;;;0.10;0.10;;;20.10;88.80;;;;;;4916981;28;20140;-85
2022/06/13 01:50:55;;;;;;;0.35;0.35;;;20.00;89.20;;;;;;4922327;28;20051;-85
2022/06/13 01:53:48;;;;;;;0.38;0.13;;;20.00;89.00;;;;;;4927927;28;20850;-85
2022/06/13 01:56:16;;;;;;;0.13;0.13;;;20.00;88.70;;;;;;4927593;28;20039;-87
2022/06/13 01:59:15;;;;;;;0.10;0.10;;;19.90;89.10;;;;;;4925785;28;20125;-85
2022/06/13 02:02:13;;;;;;;0.43;0.43;;;19.90;89.20;;;;;;4926420;28;20046;-85
2022/06/13 02:04:47;;;;;;;0.30;0.30;;;19.90;89.60;;;;;;4923040;28;20039;-85
2022/06/13 02:07:29;;;;;;;0.82;0.63;;;19.80;89.60;;;;;;4937391;28;20035;-87
2022/06/13 02:10:07;;;;;;;0.10;0.10;;;19.70;89.70;;;;;;4941377;28;20798;-87
2022/06/13 02:12:35;;;;;;;0.52;0.45;;;19.80;89.70;;;;;;5021897;28;20033;-87
2022/06/13 02:15:22;;;;;;;0.50;0.30;;;19.80;89.40;;;;;;5022310;28;21385;-88
2022/06/13 02:17:58;;;;;;;0.52;0.40;;;19.70;89.50;;;;;;5021727;28;20665;-87
2022/06/13 02:20:34;;;;;;;0.28;0.22;;;19.70;89.70;;;;;;5023868;28;20021;-87
2022/06/13 02:23:07;;;;;;;0.77;0.77;;;19.60;90.10;;;;;;5021044;28;20484;-87
2022/06/13 02:26:02;;;;;;;0.25;0.25;;;19.70;90.00;;;;;;5020827;28;20120;-87
2022/06/13 02:28:37;;;;;;;0.10;0.10;;;19.70;90.00;;;;;;5024475;28;20936;-87
2022/06/13 02:31:17;;;;;;;0.40;0.40;;;19.70;89.50;;;;;;5020910;28;20033;-88
2022/06/13 02:33:49;;;;;;;0.88;0.85;;;19.80;87.30;;;;;;5021358;28;20048;-88
2022/06/13 02:36:40;;;;;;;0.20;0.20;;;19.90;87.70;;;;;;5002782;28;20103;-86
2022/06/13 02:39:32;;;;;;;12.73;1.02;;;19.90;87.80;;;;;;4954024;28;20058;-88
2022/06/13 02:42:15;;;;;;;4.20;0.80;;;19.90;87.30;;;;;;4928254;28;20497;-88
2022/06/13 02:45:01;;;;;;;0.10;0.10;;;19.80;86.80;;;;;;4945807;28;20054;-88
2022/06/13 02:48:08;;;;;;;0.15;0.15;;;19.80;87.30;;;;;;4943914;28;20039;-87
2022/06/13 02:50:39;;;;;;;0.73;0.40;;;19.80;87.10;;;;;;4932099;28;20043;-84
2022/06/13 02:53:26;;;;;;;0.35;0.35;;;19.70;87.90;;;;;;4942049;28;20069;-83
2022/06/13 02:56:07;;;;;;;0.17;0.17;;;19.60;87.90;;;;;;4941739;28;20536;-83
2022/06/13 02:58:38;;;;;;;0.10;0.10;;;19.60;88.20;;;;;;4944469;28;20067;-85
2022/06/13 03:01:09;;;;;;;0.28;0.28;;;19.50;88.40;;;;;;4960149;28;20081;-83
2022/06/13 03:03:41;;;;;;;1.13;1.02;;;19.60;88.00;;;;;;4952669;28;20046;-83
2022/06/13 03:06:26;;;;;;;0.00;0.00;;;19.50;88.50;;;;;;4930012;28;20777;-85
2022/06/13 03:08:57;;;;;;;0.63;0.43;;;19.50;88.50;;;;;;4950422;28;20065;-86
2022/06/13 03:11:45;;;;;;;0.03;0.03;;;19.50;88.30;;;;;;4944818;28;20046;-84
2022/06/13 03:14:18;;;;;;;0.10;0.10;;;19.50;88.50;;;;;;4927001;28;20145;-86
2022/06/13 03:17:19;;;;;;;0.20;0.20;;;19.50;88.20;;;;;;4989934;28;20041;-84
2022/06/13 03:20:11;;;;;;;0.10;0.10;;;19.40;88.80;;;;;;5002547;28;20100;-83
2022/06/13 03:22:45;;;;;;;0.10;0.10;;;19.40;89.10;;;;;;4941380;28;20102;-83
2022/06/13 03:25:11;;;;;;;1.38;0.30;;;19.30;89.60;;;;;;4937454;28;20129;-87
2022/06/13 03:27:49;;;;;;;0.10;0.10;;;19.30;89.70;;;;;;4927754;28;20061;-86
2022/06/13 03:30:20;;;;;;;0.30;0.30;;;19.30;89.60;;;;;;4942159;28;20046;-87
2022/06/13 03:35:42;;;;;;;0.63;0.38;;;19.40;89.40;;;;;;4942468;28;20658;-84
2022/06/13 03:38:13;;;;;;;0.17;0.17;;;19.20;89.80;;;;;;4953877;28;20084;-86
2022/06/13 03:40:41;;;;;;;0.10;0.10;;;19.10;90.20;;;;;;4941952;28;20038;-88
2022/06/13 03:43:26;;;;;;;0.10;0.10;;;19.20;90.00;;;;;;4942362;28;20223;-87
2022/06/13 03:46:01;;;;;;;0.10;0.10;;;19.20;90.00;;;;;;4941444;28;20163;-88
2022/06/13 03:48:33;;;;;;;0.25;0.25;;;19.10;90.20;;;;;;4943025;28;20167;-90
2022/06/13 03:51:04;;;;;;;0.52;0.22;;;19.10;90.20;;;;;;4942924;28;20214;-88
2022/06/13 03:53:39;;;;;;;0.10;0.10;;;19.10;90.20;;;;;;4944198;28;20073;-89
2022/06/13 03:56:23;;;;;;;0.08;0.08;;;19.20;90.20;;;;;;4942170;28;20138;-87
2022/06/13 03:59:40;;;;;;;0.32;0.30;;;19.30;89.80;;;;;;4953053;28;20608;-85
2022/06/13 04:02:18;;;;;;;0.65;0.47;;;19.20;89.40;;;;;;5000646;28;20304;-83
2022/06/13 04:04:49;;;;;;;0.73;0.60;;;19.30;88.60;;;;;;5004294;28;20038;-84
2022/06/13 04:07:17;;;;;;;0.10;0.10;;;19.20;88.60;;;;;;5007625;28;20487;-84
2022/06/13 04:09:50;;;;;;;0.00;0.00;;;19.20;88.40;;;;;;4981550;28;20429;-84
2022/06/13 04:12:40;;;;;;;0.30;0.30;;;19.10;88.70;;;;;;5000913;28;20112;-83
2022/06/13 04:15:12;;;;;;;0.28;0.28;;;19.10;88.80;;;;;;5000359;28;20044;-83
2022/06/13 04:17:56;;;;;;;0.75;0.45;;;19.10;88.60;;;;;;4999482;28;20044;-82
2022/06/13 04:20:30;;;;;;;0.10;0.10;;;19.10;88.40;;;;;;5003043;28;20037;-84
2022/06/13 04:23:08;;;;;;;0.20;0.20;;;19.00;89.30;;;;;;5021319;28;20060;-84
2022/06/13 04:25:53;;;;;;;0.20;0.20;;;19.00;89.10;;;;;;5017614;28;20037;-83
2022/06/13 04:28:38;;;;;;;0.15;0.15;;;19.00;89.40;;;;;;5019523;28;20452;-84
2022/06/13 04:31:07;;;;;;;0.20;0.15;;;19.00;89.20;;;;;;5019810;28;20036;-84
2022/06/13 04:33:40;;;;;;;0.20;0.20;;;19.00;89.40;;;;;;5018805;28;20409;-84
2022/06/13 04:36:10;;;;;;;0.10;0.10;;;19.00;89.90;;;;;;5019770;28;20029;-84
2022/06/13 04:38:41;;;;;;;0.10;0.10;;;18.90;90.00;;;;;;5022203;28;20041;-84
2022/06/13 04:41:10;;;;;;;0.32;0.32;;;19.00;89.90;;;;;;5021016;28;20029;-84
2022/06/13 04:43:40;;;;;;;0.20;0.20;;;19.10;90.00;;;;;;5019422;28;20122;-81
2022/06/13 04:46:14;;;;;;;0.32;0.32;;;19.10;90.20;;;;;;5019256;28;20456;-81
2022/06/13 04:48:43;;;;;;;0.00;0.00;;;19.00;90.30;;;;;;5013803;28;20056;-82
2022/06/13 04:51:16;;;;;;;0.40;0.40;;;19.10;90.40;;;;;;5019724;28;20033;-80
2022/06/13 04:53:51;;;;;;;0.20;0.20;;;19.10;90.60;;;;;;5039780;28;20025;-81
2022/06/13 04:56:21;;;;;;;0.17;0.17;;;19.20;90.50;;;;;;5037405;28;20530;-82
2022/06/13 04:58:48;;;;;;;0.00;0.00;;;19.20;90.30;;;;;;5037465;28;20335;-82
2022/06/13 05:01:27;;;;;;;0.00;0.00;;;19.40;90.00;;;;;;5020909;28;20448;-82
2022/06/13 05:03:58;;;;;;;0.20;0.20;;;20.30;86.80;;;;;;5034937;28;20028;-81
2022/06/13 05:06:45;;;;;;;1.85;0.65;;;20.60;84.80;;;;;;5016372;28;20518;-82
2022/06/13 05:09:10;;;;;;;0.25;0.25;;;20.00;86.40;;;;;;5042201;28;20147;-88
2022/06/13 05:11:39;;;;;;;0.13;0.13;;;19.70;87.60;;;;;;5026629;28;20529;-89
2022/06/13 05:14:12;;;;;;;0.43;0.30;;;19.50;87.60;;;;;;5038953;28;20028;-88
2022/06/13 05:16:54;;;;;;;0.00;0.00;;;19.50;88.70;;;;;;5029435;28;20029;-87
2022/06/13 05:19:42;;;;;;;0.90;0.75;;;19.50;89.20;;;;;;5029343;28;20063;-87
2022/06/13 05:22:26;;;;;;;0.10;0.10;;;19.60;87.60;;;;;;4915371;29;20147;-82
2022/06/13 05:25:00;;;;;;;0.10;0.10;;;19.80;87.10;;;;;;4941893;28;20047;-81
2022/06/13 05:27:26;;;;;;;0.20;0.20;;;20.40;84.90;;;;;;4940078;28;20054;-81
2022/06/13 05:29:51;;;;;;;0.10;0.10;;;21.50;81.30;;;;;;4932730;29;20039;-82
2022/06/13 05:32:21;;;;;;;0.00;0.00;;;21.30;80.80;;;;;;4941552;28;20035;-82
2022/06/13 05:34:48;;;;;;;0.00;0.00;;;21.00;81.30;;;;;;4936725;29;20041;-82
2022/06/13 05:37:16;;;;;;;0.10;0.10;;;20.50;84.10;;;;;;4936576;29;20052;-81
2022/06/13 05:39:42;;;;;;;0.20;0.20;;;20.40;84.70;;;;;;4939208;28;20039;-82
2022/06/13 05:42:10;;;;;;;0.22;0.20;;;20.20;85.10;;;;;;4938992;29;20180;-82
2022/06/13 05:44:35;;;;;;;0.00;0.00;;;20.00;86.20;;;;;;4944315;28;20137;-82
2022/06/13 05:47:01;;;;;;;0.57;0.57;;;19.80;86.80;;;;;;4944168;29;20923;-82
2022/06/13 05:49:27;;;;;;;0.20;0.10;;;20.80;84.40;;;;;;4941091;29;20062;-82
2022/06/13 05:51:53;;;;;;;0.03;0.03;;;21.10;81.20;;;;;;4941364;29;20318;-82
2022/06/13 05:54:19;;;;;;;0.27;0.27;;;21.90;80.40;;;;;;4943100;29;20047;-81
2022/06/13 05:56:45;;;;;;;0.03;0.03;;;23.50;73.30;;;;;;4938949;28;20042;-83
2022/06/13 05:59:10;;;;;;;0.00;0.00;;;23.50;72.20;;;;;;4985220;28;20044;-81
2022/06/13 06:01:36;;;;;;;0.03;0.03;;;24.50;68.50;;;;;;5041710;28;20025;-81
2022/06/13 06:04:03;;;;;;;0.10;0.10;;;25.10;66.80;;;;;;5041549;28;20473;-81
2022/06/13 06:06:30;;;;;;;0.30;0.30;;;25.00;67.10;;;;;;5040946;28;20029;-81
2022/06/13 06:08:57;;;;;;;0.10;0.10;;;25.30;66.90;;;;;;5037019;28;20025;-81
2022/06/13 06:11:24;;;;;;;0.00;0.00;;;26.10;65.50;;;;;;5044389;28;20033;-82
2022/06/13 06:13:50;;;;;;;0.00;0.00;;;26.70;62.30;;;;;;5041256;28;20028;-81
2022/06/13 06:16:19;;;;;;;7.15;0.88;;;26.40;63.00;;;;;;5043488;28;20132;-82
2022/06/13 06:18:45;;;;;;;1.45;0.75;;;26.10;63.50;;;;;;5040630;28;20071;-81
2022/06/13 06:21:11;;;;;;;0.10;0.00;;;26.10;63.50;;;;;;5023423;28;20034;-82
2022/06/13 06:23:37;;;;;;;0.00;0.00;;;26.50;61.90;;;;;;5042266;28;20040;-82
2022/06/13 06:26:06;;;;;;;0.60;0.60;;;26.50;60.30;;;;;;5043342;28;20037;-82
2022/06/13 06:28:33;;;;;;;0.00;0.00;;;26.90;60.90;;;;;;5040357;28;20072;-81
2022/06/13 06:30:59;;;;;;;0.10;0.10;;;26.80;62.00;;;;;;5040831;28;20517;-81
2022/06/13 06:33:26;;;;;;;0.35;0.35;;;27.30;60.60;;;;;;5040500;28;20588;-83
2022/06/13 06:35:53;;;;;;;0.20;0.20;;;27.80;59.00;;;;;;5041087;28;20037;-84
2022/06/13 06:38:21;;;;;;;0.00;0.00;;;27.70;59.10;;;;;;5044048;28;20044;-83
2022/06/13 06:40:47;;;;;;;0.00;0.00;;;27.40;58.80;;;;;;5041275;28;20033;-81
2022/06/13 06:43:13;;;;;;;;;;;27.50;58.80;;;;;;5023116;28;20040;-83
2022/06/13 06:45:41;;;;;;;0.10;0.10;;;27.90;59.80;;;;;;5023822;28;19913;-83
2022/06/13 06:48:16;;;;;;;0.60;0.60;;;28.10;58.50;;;;;;5040921;28;20044;-82
2022/06/13 06:50:44;;;;;;;0.30;0.28;;;28.40;58.00;;;;;;5041553;28;20079;-87
2022/06/13 06:53:11;;;;;;;0.05;0.05;;;28.30;58.00;;;;;;5042698;28;20025;-88
2022/06/13 07:01:08;;;;;;;0.10;0.10;;;29.10;55.60;;;;;;5040107;28;20112;-88
2022/06/13 07:03:34;;;;;;;0.00;0.00;;;29.50;56.00;;;;;;5039635;28;20036;-87
2022/06/13 07:06:00;;;;;;;0.10;0.10;;;30.30;54.10;;;;;;5039729;28;20475;-87
2022/06/13 07:08:27;;;;;;;;;;;29.90;54.40;;;;;;5043889;28;20032;-87
2022/06/13 07:10:53;;;;;;;0.28;0.28;;;30.40;52.50;;;;;;5040031;28;19982;-87
2022/06/13 07:13:19;;;;;;;;;;;30.30;54.20;;;;;;5041714;28;20029;-88
2022/06/13 07:15:46;;;;;;;0.00;0.00;;;30.60;55.30;;;;;;5040189;28;19912;-87
2022/06/13 07:18:12;;;;;;;0.03;0.03;;;31.10;53.40;;;;;;5039754;28;20042;-87
2022/06/13 07:20:38;;;;;;;;;;;30.60;53.30;;;;;;5042316;28;20147;-86
2022/06/13 07:23:04;;;;;;;0.15;0.15;;;30.50;53.30;;;;;;5041164;28;19971;-86
2022/06/13 07:25:30;;;;;;;;;;;31.40;51.20;;;;;;5039952;28;20578;-87
2022/06/13 07:27:57;;;;;;;0.13;0.13;;;31.30;51.20;;;;;;5039859;28;19912;-86
2022/06/13 07:30:25;;;;;;;0.00;0.00;;;32.10;50.00;;;;;;5039856;28;20057;-86
2022/06/13 07:32:53;;;;;;;6.43;0.22;;;32.00;49.00;;;;;;5040484;28;20031;-86
2022/06/13 07:35:22;;;;;;;0.28;0.28;;;31.70;51.10;;;;;;5042427;28;20029;-86
2022/06/13 07:40:32;;;;;;;0.10;0.10;;;31.90;50.00;;;;;;5039793;28;20040;-87
2022/06/13 07:43:03;;;;;;;0.00;0.00;;;31.90;50.70;;;;;;5039662;28;20029;-86
2022/06/13 07:45:33;;;;;;;0.52;0.52;;;33.10;49.30;;;;;;5039328;28;20082;-87
2022/06/13 07:47:59;;;;;;;0.00;0.00;;;34.20;46.90;;;;;;5036920;28;20033;-81
2022/06/13 07:50:26;;;;;;;0.10;0.00;;;33.80;47.00;;;;;;5038630;28;20597;-81
2022/06/13 07:52:53;;;;;;;0.98;0.57;;;33.70;46.60;;;;;;5039525;28;20516;-81
2022/06/13 07:55:20;;;;;;;0.10;0.10;;;33.50;47.90;;;;;;5039937;28;20154;-81
2022/06/13 07:57:46;;;;;;;1.85;0.55;;;33.20;47.80;;;;;;5039398;28;20064;-81
2022/06/13 08:00:33;;;;;;;0.10;0.10;;;33.70;47.00;;;;;;5022337;28;20030;-82
2022/06/13 08:03:01;;;;;;;0.35;0.35;;;33.70;46.20;;;;;;5034488;28;20103;-81
2022/06/13 08:05:28;;;;;;;0.00;0.00;;;34.70;46.40;;;;;;5042572;28;20039;-81
2022/06/13 08:07:54;;;;;;;0.17;0.17;;;34.60;46.10;;;;;;5039595;28;20124;-82
2022/06/13 08:10:20;;;;;;;0.20;0.20;;;34.40;47.40;;;;;;5022414;28;20411;-82
2022/06/13 08:12:46;;;;;;;0.17;0.17;;;34.40;45.80;;;;;;5039289;28;20543;-82
2022/06/13 08:15:13;;;;;;;0.00;0.00;;;34.30;47.10;;;;;;5039081;28;20037;-81
2022/06/13 08:17:39;;;;;;;0.00;0.00;;;35.10;45.00;;;;;;5041223;28;20145;-82
2022/06/13 08:20:17;;;;;;;0.10;0.10;;;36.00;45.10;;;;;;5040550;28;20118;-82
2022/06/13 08:22:44;;;;;;;0.00;0.00;;;36.50;43.20;;;;;;5023718;28;20836;-81
2022/06/13 08:25:19;;;;;;;0.50;0.20;;;37.40;42.20;;;;;;5039556;28;20043;-82
2022/06/13 08:27:44;;;;;;;0.10;0.10;;;37.20;41.30;;;;;;5030128;28;20440;-82
2022/06/13 08:30:11;;;;;;;5.28;0.70;;;36.40;43.30;;;;;;5039399;28;20121;-81
2022/06/13 08:32:36;;;;;;;0.25;0.17;;;37.10;43.70;;;;;;5027408;28;20035;-80
2022/06/13 08:35:02;;;;;;;0.20;0.20;;;37.30;42.80;;;;;;5044356;28;20025;-78
2022/06/13 08:37:28;;;;;;;0.10;0.10;;;37.20;41.40;;;;;;5024657;28;20491;-79
2022/06/13 08:39:54;;;;;;;0.57;0.55;;;37.50;41.40;;;;;;5044160;28;20033;-79
2022/06/13 08:42:45;;;;;;;0.28;0.28;;;37.10;43.40;;;;;;5043160;28;20445;-80
2022/06/13 08:45:29;;;;;;;0.05;0.05;;;38.70;41.30;;;;;;5040697;28;20076;-80
2022/06/13 08:48:08;;;;;;;2.17;0.32;;;38.10;40.70;;;;;;5045622;28;20935;-79
2022/06/13 08:50:43;;;;;;;0.55;0.43;;;36.50;42.60;;;;;;5042207;28;20053;-79
2022/06/13 08:53:26;;;;;;;;;;;36.60;42.90;;;;;;5044695;28;20037;-80
2022/06/13 08:56:01;;;;;;;0.10;0.10;;;37.60;42.10;;;;;;5042105;28;19919;-80
2022/06/13 08:58:48;;;;;;;0.10;0.10;;;37.80;41.90;;;;;;5042373;28;20205;-79
2022/06/13 09:01:32;;;;;;;0.25;0.25;;;37.10;41.40;;;;;;5042660;28;20488;-80
2022/06/13 09:04:07;;;;;;;0.00;0.00;;;37.90;39.80;;;;;;5042794;28;20210;-79
2022/06/13 09:06:48;;;;;;;10.63;1.42;;;37.30;42.20;;;;;;5027008;28;20838;-79
2022/06/13 09:09:24;;;;;;;0.30;0.10;;;36.60;42.40;;;;;;5042926;28;20043;-80
2022/06/13 09:12:02;;;;;;;0.40;0.40;;;37.60;40.30;;;;;;5044543;28;20026;-79
2022/06/13 09:14:57;;;;;;;0.30;0.20;;;39.30;40.20;;;;;;5042043;28;20566;-80
2022/06/13 09:17:54;;;;;;;0.10;0.10;;;39.30;40.50;;;;;;5046036;28;20615;-79
2022/06/13 09:20:34;;;;;;;0.13;0.13;;;39.20;39.00;;;;;;5022104;28;20037;-79
2022/06/13 09:23:17;;;;;;;0.15;0.15;;;37.70;40.10;;;;;;5044858;28;20033;-80
2022/06/13 09:25:51;;;;;;;0.00;0.00;;;38.90;42.10;;;;;;5042027;28;20033;-79
2022/06/13 09:28:41;;;;;;;0.37;0.10;;;39.00;38.80;;;;;;5044188;28;20033;-79
2022/06/13 09:31:17;;;;;;;0.10;0.10;;;40.00;40.60;;;;;;5042495;28;20275;-80
2022/06/13 09:33:50;;;;;;;0.10;0.10;;;38.90;41.00;;;;;;5032694;28;20025;-79
2022/06/13 09:36:22;;;;;;;0.00;0.00;;;39.20;41.60;;;;;;5042564;28;20170;-80
2022/06/13 09:38:54;;;;;;;0.03;0.03;;;38.10;39.30;;;;;;5043699;28;20595;-79
2022/06/13 09:41:44;;;;;;;0.00;0.00;;;38.90;39.20;;;;;;5045459;28;20100;-79
2022/06/13 09:44:32;;;;;;;0.00;0.00;;;40.00;39.10;;;;;;5043231;28;20033;-79
2022/06/13 09:47:04;;;;;;;0.00;0.00;;;38.40;40.60;;;;;;5042536;28;20037;-79
2022/06/13 09:49:36;;;;;;;0.00;0.00;;;39.50;41.80;;;;;;5043624;28;20067;-84
2022/06/13 09:52:34;;;;;;;0.10;0.10;;;40.00;37.90;;;;;;5025899;28;20033;-84
2022/06/13 09:55:09;;;;;;;2.38;0.88;;;39.30;39.20;;;;;;5021918;28;20505;-84
2022/06/13 09:57:45;;;;;;;0.15;0.10;;;39.30;39.80;;;;;;5041111;28;20037;-83
2022/06/13 10:00:34;;;;;;;0.00;0.00;;;40.70;40.00;;;;;;5041994;28;20033;-84
2022/06/13 10:03:10;;;;;;;0.10;0.10;;;40.40;38.70;;;;;;4936223;29;20391;-83
2022/06/13 10:05:37;;;;;;;0.30;0.30;;;40.10;39.90;;;;;;4943213;29;20493;-83
2022/06/13 10:08:29;;;;;;;1.20;0.40;;;40.30;39.90;;;;;;4941865;29;20059;-83
2022/06/13 10:11:13;;;;;;;0.10;0.10;;;40.40;39.20;;;;;;4933515;29;20130;-83
2022/06/13 10:14:06;;;;;;;0.15;0.15;;;40.10;38.50;;;;;;4940689;29;20055;-83
2022/06/13 10:16:49;;;;;;;0.13;0.13;;;39.10;39.10;;;;;;4940571;29;20049;-85
2022/06/13 10:19:27;;;;;;;0.05;0.03;;;39.50;38.40;;;;;;4940738;29;20051;-84
2022/06/13 10:22:41;;;;;;;2.17;0.65;;;38.20;40.10;;;;;;4940298;29;20035;-85
2022/06/13 10:25:37;;;;;;;0.15;0.15;;;39.10;39.50;;;;;;4940093;29;20070;-85
2022/06/13 10:28:22;;;;;;;0.00;0.00;;;40.20;36.30;;;;;;4933363;29;21041;-84
2022/06/13 10:31:18;;;;;;;0.17;0.17;;;38.30;38.40;;;;;;4931634;29;20042;-85
2022/06/13 10:34:06;;;;;;;0.43;0.25;;;37.70;40.60;;;;;;4930812;29;20101;-85
2022/06/13 10:36:44;;;;;;;0.15;0.15;;;37.70;40.40;;;;;;4940085;29;20114;-85
2022/06/13 10:39:17;;;;;;;0.22;0.22;;;36.50;40.50;;;;;;4947824;28;20072;-85
2022/06/13 10:41:47;;;;;;;0.22;0.20;;;35.60;41.60;;;;;;5042640;28;20025;-85
2022/06/13 10:44:16;;;;;;;0.57;0.40;;;34.40;43.70;;;;;;5024135;28;20593;-84
2022/06/13 10:46:43;;;;;;;0.00;0.00;;;33.60;44.10;;;;;;5040674;28;20079;-84
2022/06/13 10:49:34;;;;;;;0.00;0.00;;;33.30;44.80;;;;;;5042053;28;20048;-84
2022/06/13 10:52:06;;;;;;;0.05;0.05;;;33.40;46.50;;;;;;5032439;28;20469;-85
2022/06/13 10:54:39;;;;;;;0.28;0.28;;;33.00;45.60;;;;;;5038989;28;20036;-85
2022/06/13 10:57:12;;;;;;;1.02;0.15;;;33.30;46.60;;;;;;5035801;28;20132;-84
2022/06/13 10:59:39;;;;;;;0.57;0.38;;;32.20;46.50;;;;;;5042290;28;20033;-85
2022/06/13 11:02:19;;;;;;;0.10;0.10;;;31.70;47.30;;;;;;5022977;28;20079;-85
2022/06/13 11:04:45;;;;;;;0.00;0.00;;;32.40;49.60;;;;;;5039980;28;20036;-85
2022/06/13 11:07:18;;;;;;;0.10;0.10;;;31.90;47.70;;;;;;5040081;28;20029;-84
2022/06/13 11:09:56;;;;;;;0.10;0.10;;;31.50;45.50;;;;;;5030476;28;20063;-84
2022/06/13 11:12:27;;;;;;;0.10;0.10;;;31.90;48.90;;;;;;5023984;28;20704;-85
2022/06/13 11:23:57;;;;;;;3.00;0.90;;;32.00;48.20;;;;;;5039488;28;20526;-84
2022/06/13 11:29:17;;;;;;;0.20;0.20;;;31.40;48.70;;;;;;4921406;29;20138;-85
2022/06/13 11:31:57;;;;;;;0.08;0.08;;;31.00;50.10;;;;;;4917214;29;20055;-84
2022/06/13 11:34:32;;;;;;;0.10;0.10;;;31.40;52.90;;;;;;4917167;29;20879;-84
2022/06/13 11:37:22;;;;;;;0.15;0.15;;;31.20;54.40;;;;;;4919072;29;20417;-85
2022/06/13 11:39:50;;;;;;;0.10;0.10;;;31.20;53.00;;;;;;4911527;29;20054;-84
2022/06/13 11:42:23;;;;;;;1.75;0.65;;;31.30;50.90;;;;;;4920048;29;20102;-84
2022/06/13 11:45:00;;;;;;;0.10;0.10;;;31.40;53.10;;;;;;4917642;29;20079;-85
2022/06/13 11:47:38;;;;;;;0.30;0.30;;;31.30;53.40;;;;;;4919666;29;20126;-84
2022/06/13 11:50:15;;;;;;;0.45;0.35;;;31.20;54.80;;;;;;4917765;29;20051;-84
2022/06/13 11:55:28;;;;;;;0.52;0.40;;;30.80;53.00;;;;;;4917456;29;20038;-85
2022/06/13 11:58:00;;;;;;;0.13;0.13;;;30.70;52.70;;;;;;4919338;29;20071;-84
2022/06/13 12:00:46;;;;;;;0.35;0.25;;;30.60;50.00;;;;;;4921827;29;20427;-84
2022/06/13 12:03:25;;;;;;;0.40;0.28;;;30.80;51.20;;;;;;4919248;29;20165;-84
2022/06/13 12:05:58;;;;;;;0.93;0.63;;;30.60;48.10;;;;;;4950403;28;20037;-85
2022/06/13 12:08:29;;;;;;;0.55;0.30;;;30.90;49.00;;;;;;5046422;28;20106;-84
2022/06/13 12:11:13;;;;;;;1.20;0.10;;;31.40;51.20;;;;;;5044145;28;20029;-85
2022/06/13 12:13:44;;;;;;;0.20;0.13;;;31.80;52.40;;;;;;5043482;28;20503;-84
2022/06/13 12:16:32;;;;;;;0.00;0.00;;;31.70;52.90;;;;;;5043446;28;20704;-85
2022/06/13 12:19:09;;;;;;;0.10;0.10;;;31.60;50.00;;;;;;5035485;28;20045;-85
2022/06/13 12:21:56;;;;;;;0.00;0.00;;;30.80;52.50;;;;;;5043335;28;20031;-84
2022/06/13 12:24:33;;;;;;;0.00;0.00;;;30.60;52.30;;;;;;5043265;28;20048;-84
2022/06/13 12:27:12;;;;;;;0.05;0.05;;;30.10;51.50;;;;;;5038354;28;21010;-84
2022/06/13 12:30:15;;;;;;;0.00;0.00;;;29.90;51.90;;;;;;5043075;28;20032;-84
2022/06/13 12:32:52;;;;;;;0.00;0.00;;;30.10;52.20;;;;;;5038012;28;20029;-84
2022/06/13 12:35:28;;;;;;;0.15;0.10;;;30.40;52.80;;;;;;5046163;28;20111;-85
2022/06/13 12:38:00;;;;;;;0.20;0.13;;;30.90;54.00;;;;;;5042446;28;20056;-84
2022/06/13 12:40:50;;;;;;;0.40;0.38;;;30.70;51.80;;;;;;5043209;28;20848;-84
2022/06/13 12:43:30;;;;;;;0.30;0.20;;;31.00;51.70;;;;;;5043311;28;20024;-84
2022/06/13 12:46:04;;;;;;;0.25;0.25;;;30.70;53.10;;;;;;5027092;28;20036;-85
2022/06/13 12:48:49;;;;;;;0.20;0.20;;;30.40;51.80;;;;;;5044022;28;20041;-84
2022/06/13 12:51:25;;;;;;;0.20;0.20;;;30.30;51.70;;;;;;5039111;28;20060;-85
2022/06/13 12:54:02;;;;;;;;;;;30.00;52.50;;;;;;5044392;28;20760;-84
2022/06/13 12:56:47;;;;;;;5.18;0.55;;;30.10;51.10;;;;;;5042384;28;20021;-84
2022/06/13 12:59:31;;;;;;;0.45;0.40;;;30.20;51.30;;;;;;5043080;28;20582;-84
2022/06/13 13:02:27;;;;;;;0.20;0.20;;;30.10;52.30;;;;;;5044541;28;20122;-84
2022/06/13 13:04:56;;;;;;;0.20;0.20;;;30.40;53.20;;;;;;5042384;28;20079;-85
2022/06/13 13:07:39;;;;;;;0.85;0.20;;;30.70;52.50;;;;;;5042026;28;20044;-85
2022/06/13 13:10:16;;;;;;;0.32;0.10;;;30.90;55.00;;;;;;5042139;28;20381;-84
2022/06/13 13:13:01;;;;;;;0.03;0.03;;;31.20;53.30;;;;;;5032336;28;20048;-85
2022/06/13 13:15:33;;;;;;;0.20;0.20;;;31.20;53.00;;;;;;5041887;28;20025;-84
2022/06/13 13:18:10;;;;;;;0.17;0.17;;;31.10;51.50;;;;;;5036337;28;20033;-85
2022/06/13 13:20:52;;;;;;;0.10;0.10;;;30.70;51.30;;;;;;5041787;28;20036;-84
2022/06/13 13:23:38;;;;;;;0.00;0.00;;;30.20;52.10;;;;;;5044836;28;20089;-84
2022/06/13 13:26:16;;;;;;;0.10;0.10;;;29.80;52.10;;;;;;5044433;28;20084;-84
2022/06/13 13:29:05;;;;;;;0.30;0.10;;;29.70;52.00;;;;;;5041724;28;20177;-84
2022/06/13 13:32:04;;;;;;;0.00;0.00;;;29.60;51.80;;;;;;5043146;28;20683;-84
2022/06/13 13:34:52;;;;;;;0.60;0.10;;;29.80;53.00;;;;;;5040160;28;20079;-84
2022/06/13 13:37:27;;;;;;;0.22;0.10;;;29.70;53.90;;;;;;5041909;28;20041;-84
2022/06/13 13:40:08;;;;;;;0.77;0.50;;;29.90;53.60;;;;;;5042212;28;20118;-84
2022/06/13 13:42:45;;;;;;;0.15;0.15;;;30.20;53.40;;;;;;5041609;28;20380;-85
2022/06/13 13:45:17;;;;;;;0.00;0.00;;;30.10;52.80;;;;;;5041652;28;20674;-84
2022/06/13 13:47:52;;;;;;;0.00;0.00;;;30.30;53.20;;;;;;5044416;28;20085;-84
2022/06/13 13:50:23;;;;;;;0.43;0.37;;;30.60;52.60;;;;;;5044272;28;20148;-85
2022/06/13 13:53:03;;;;;;;0.73;0.30;;;30.70;55.20;;;;;;5041807;28;20029;-84
2022/06/13 13:55:40;;;;;;;2.17;0.45;;;30.40;54.10;;;;;;5041747;28;20048;-85
2022/06/13 13:58:15;;;;;;;0.25;0.25;;;30.20;54.40;;;;;;5041855;28;20584;-85